createdAt,value
2022-11-30T00:01:53.136Z,5.80
2022-11-30T00:04:21.065Z,5.80
2022-11-30T00:06:49.171Z,5.90
2022-11-30T00:09:17.097Z,5.90
2022-11-30T00:11:46.360Z,5.80
2022-11-30T00:14:14.314Z,5.90
2022-11-30T00:16:42.266Z,5.80
2022-11-30T00:19:10.272Z,5.80
2022-11-30T00:21:38.288Z,5.80
2022-11-30T00:24:07.044Z,5.80
2022-11-30T00:26:35.036Z,5.70
2022-11-30T00:29:04.374Z,5.70
2022-11-30T00:31:32.468Z,5.60
2022-11-30T00:34:00.580Z,5.50
2022-11-30T00:36:28.581Z,5.50
2022-11-30T00:38:56.841Z,5.40
2022-11-30T00:41:24.846Z,5.40
2022-11-30T00:43:52.843Z,5.40
2022-11-30T00:46:22.275Z,5.40
2022-11-30T00:48:50.268Z,5.40
2022-11-30T00:51:18.542Z,5.40
2022-11-30T00:53:47.554Z,5.40
2022-11-30T00:56:15.871Z,5.40
2022-11-30T00:58:43.802Z,5.50
2022-11-30T01:01:11.796Z,5.50
2022-11-30T01:03:41.159Z,5.50
2022-11-30T01:06:10.638Z,5.50
2022-11-30T01:08:38.882Z,5.50
2022-11-30T01:11:09.890Z,5.60
2022-11-30T01:13:37.922Z,5.60
2022-11-30T01:16:11.584Z,5.60
2022-11-30T01:18:41.200Z,5.60
2022-11-30T01:21:10.195Z,5.60
2022-11-30T01:23:38.431Z,5.70
2022-11-30T01:26:06.446Z,5.70
2022-11-30T01:28:34.770Z,5.70
2022-11-30T01:31:04.920Z,5.70
2022-11-30T01:33:33.393Z,5.70
2022-11-30T01:36:05.427Z,5.70
2022-11-30T01:38:34.383Z,5.70
2022-11-30T01:41:02.711Z,5.70
2022-11-30T01:43:45.492Z,5.70
2022-11-30T01:46:25.407Z,5.70
2022-11-30T01:49:00.659Z,5.70
2022-11-30T01:51:35.862Z,5.80
2022-11-30T01:54:06.690Z,5.80
2022-11-30T01:56:35.127Z,5.80
2022-11-30T01:59:03.292Z,5.80
2022-11-30T02:01:31.637Z,5.80
2022-11-30T02:04:04.131Z,5.90
2022-11-30T02:06:33.893Z,5.90
2022-11-30T02:09:03.359Z,5.90
2022-11-30T02:11:31.566Z,5.90
2022-11-30T02:14:12.059Z,5.90
2022-11-30T02:16:50.504Z,5.90
2022-11-30T02:20:00.014Z,5.90
2022-11-30T02:22:44.008Z,5.90
2022-11-30T02:25:21.500Z,5.90
2022-11-30T02:28:25.288Z,5.90
2022-11-30T02:30:57.577Z,5.90
2022-11-30T02:33:30.155Z,5.90
2022-11-30T02:36:00.501Z,5.90
2022-11-30T02:38:30.331Z,5.90
2022-11-30T02:40:58.283Z,5.90
2022-11-30T02:43:29.292Z,5.90
2022-11-30T02:46:04.424Z,5.90
2022-11-30T02:48:41.718Z,5.90
2022-11-30T02:51:13.957Z,6.00
2022-11-30T02:53:42.549Z,6.00
2022-11-30T02:56:10.649Z,6.00
2022-11-30T02:58:38.786Z,6.00
2022-11-30T03:01:08.262Z,6.00
2022-11-30T03:03:36.264Z,6.00
2022-11-30T03:06:04.199Z,6.00
2022-11-30T03:08:32.281Z,6.00
2022-11-30T03:11:03.425Z,6.00
2022-11-30T03:13:31.660Z,6.00
2022-11-30T03:15:59.676Z,6.00
2022-11-30T03:18:28.960Z,6.00
2022-11-30T03:20:56.943Z,6.00
2022-11-30T03:23:24.861Z,6.00
2022-11-30T03:25:52.783Z,6.00
2022-11-30T03:28:20.716Z,6.00
2022-11-30T03:30:50.049Z,6.00
2022-11-30T03:33:18.068Z,6.00
2022-11-30T03:35:47.444Z,6.00
2022-11-30T03:38:15.361Z,6.00
2022-11-30T03:40:43.297Z,6.00
2022-11-30T03:43:11.239Z,6.00
2022-11-30T03:45:39.150Z,6.00
2022-11-30T03:48:07.557Z,6.10
2022-11-30T03:50:35.497Z,6.00
2022-11-30T03:53:04.753Z,6.00
2022-11-30T03:55:32.667Z,6.00
2022-11-30T03:58:00.608Z,6.00
2022-11-30T04:00:28.571Z,6.10
2022-11-30T04:02:56.588Z,6.10
2022-11-30T04:05:24.592Z,6.10
2022-11-30T04:07:52.577Z,6.10
2022-11-30T04:10:23.757Z,6.00
2022-11-30T04:12:51.727Z,6.10
2022-11-30T04:15:19.660Z,6.10
2022-11-30T04:17:47.586Z,6.10
2022-11-30T04:20:15.685Z,6.10
2022-11-30T04:22:43.613Z,6.10
2022-11-30T04:25:11.552Z,6.10
2022-11-30T04:27:40.813Z,6.10
2022-11-30T04:30:10.100Z,6.00
2022-11-30T04:32:38.030Z,6.10
2022-11-30T04:35:06.670Z,6.10
2022-11-30T04:37:34.611Z,6.10
2022-11-30T04:40:02.529Z,6.10
2022-11-30T04:42:30.469Z,6.10
2022-11-30T04:44:59.828Z,6.10
2022-11-30T04:47:27.822Z,6.10
2022-11-30T04:49:55.773Z,6.00
2022-11-30T04:52:23.758Z,6.10
2022-11-30T04:54:52.301Z,6.10
2022-11-30T04:57:20.563Z,6.10
2022-11-30T04:59:48.545Z,6.10
2022-11-30T05:02:17.859Z,6.10
2022-11-30T05:04:46.095Z,6.10
2022-11-30T05:07:14.357Z,6.10
2022-11-30T05:09:42.298Z,6.10
2022-11-30T05:12:10.220Z,6.10
2022-11-30T05:14:38.298Z,6.10
2022-11-30T05:17:06.285Z,6.10
2022-11-30T05:19:35.599Z,6.10
2022-11-30T05:22:03.561Z,6.10
2022-11-30T05:24:31.493Z,6.20
2022-11-30T05:26:59.479Z,6.30
2022-11-30T05:29:27.462Z,6.40
2022-11-30T05:31:55.399Z,6.40
2022-11-30T05:34:23.528Z,6.40
2022-11-30T05:36:52.826Z,6.40
2022-11-30T05:39:20.825Z,6.30
2022-11-30T05:41:48.906Z,6.40
2022-11-30T05:44:16.900Z,6.40
2022-11-30T05:46:45.191Z,6.40
2022-11-30T05:49:13.171Z,6.50
2022-11-30T05:51:41.978Z,6.40
2022-11-30T05:54:11.273Z,6.40
2022-11-30T05:56:39.221Z,6.40
2022-11-30T05:59:07.178Z,6.30
2022-11-30T06:01:35.152Z,6.30
2022-11-30T06:04:08.822Z,6.30
2022-11-30T06:06:37.069Z,6.30
2022-11-30T06:09:05.163Z,6.30
2022-11-30T06:11:34.573Z,6.30
2022-11-30T06:14:02.637Z,6.30
2022-11-30T06:16:31.089Z,6.30
2022-11-30T06:18:59.036Z,6.20
2022-11-30T06:21:26.938Z,6.30
2022-11-30T06:23:54.911Z,6.20
2022-11-30T06:26:23.028Z,6.20
2022-11-30T06:28:52.367Z,6.20
2022-11-30T06:31:20.355Z,6.30
2022-11-30T06:33:48.541Z,6.20
2022-11-30T06:36:21.988Z,6.20
2022-11-30T06:38:49.940Z,6.30
2022-11-30T06:41:18.083Z,6.30
2022-11-30T06:43:46.006Z,6.30
2022-11-30T06:46:15.429Z,6.30
2022-11-30T06:48:43.400Z,6.30
2022-11-30T06:51:11.807Z,6.30
2022-11-30T06:53:39.803Z,6.30
2022-11-30T06:56:10.626Z,6.30
2022-11-30T06:58:39.023Z,6.30
2022-11-30T07:01:07.950Z,6.30
2022-11-30T07:03:37.325Z,6.30
2022-11-30T07:06:08.328Z,6.30
2022-11-30T07:08:36.293Z,6.30
2022-11-30T07:11:04.737Z,6.30
2022-11-30T07:13:32.741Z,6.30
2022-11-30T07:16:00.792Z,6.30
2022-11-30T07:18:32.105Z,6.30
2022-11-30T07:21:02.973Z,6.30
2022-11-30T07:23:55.528Z,6.40
2022-11-30T07:26:24.256Z,6.40
2022-11-30T07:28:54.928Z,6.40
2022-11-30T07:31:24.977Z,6.40
2022-11-30T07:33:53.569Z,6.40
2022-11-30T07:36:24.489Z,6.40
2022-11-30T07:38:53.083Z,6.40
2022-11-30T07:41:21.100Z,6.30
2022-11-30T07:43:49.010Z,6.40
2022-11-30T07:46:17.909Z,6.40
2022-11-30T07:48:47.281Z,6.40
2022-11-30T07:51:16.923Z,6.40
2022-11-30T07:53:46.832Z,6.40
2022-11-30T07:56:16.846Z,6.40
2022-11-30T07:58:45.229Z,6.40
2022-11-30T08:01:15.601Z,6.40
2022-11-30T08:03:44.090Z,6.40
2022-11-30T08:06:14.053Z,6.50
2022-11-30T08:08:43.750Z,6.50
2022-11-30T08:11:15.511Z,6.50
2022-11-30T08:13:43.941Z,6.50
2022-11-30T08:16:13.805Z,6.50
2022-11-30T08:18:43.015Z,6.60
2022-11-30T08:21:12.949Z,6.60
2022-11-30T08:23:42.773Z,6.60
2022-11-30T08:26:14.865Z,6.70
2022-11-30T08:28:44.467Z,6.70
2022-11-30T08:31:17.528Z,6.80
2022-11-30T08:33:45.758Z,6.90
2022-11-30T08:36:15.865Z,6.90
2022-11-30T08:38:45.427Z,7.00
2022-11-30T08:41:16.531Z,7.10
2022-11-30T08:43:44.515Z,7.10
2022-11-30T08:49:23.099Z,7.20
2022-11-30T08:52:16.546Z,7.20
2022-11-30T08:54:44.881Z,7.20
2022-11-30T08:57:14.943Z,7.30
2022-11-30T08:59:42.893Z,7.30
2022-11-30T09:02:12.208Z,7.40
2022-11-30T09:04:40.164Z,7.40
2022-11-30T09:07:09.448Z,7.50
2022-11-30T09:09:37.843Z,7.50
2022-11-30T09:12:06.166Z,7.50
2022-11-30T09:14:35.676Z,7.50
2022-11-30T09:17:03.681Z,7.50
2022-11-30T09:19:31.711Z,7.60
2022-11-30T09:22:00.491Z,7.50
2022-11-30T09:24:28.415Z,7.50
2022-11-30T09:26:57.808Z,7.60
2022-11-30T09:29:25.889Z,7.60
2022-11-30T09:31:55.190Z,7.70
2022-11-30T09:34:23.155Z,7.70
2022-11-30T09:36:51.313Z,7.70
2022-11-30T09:39:20.108Z,7.80
2022-11-30T09:42:15.165Z,7.90
2022-11-30T09:44:51.158Z,7.90
2022-11-30T09:47:32.485Z,7.90
2022-11-30T09:50:05.073Z,8.00
2022-11-30T09:52:37.008Z,8.00
2022-11-30T09:55:10.254Z,8.10
2022-11-30T09:57:45.251Z,8.20
2022-11-30T10:00:17.896Z,8.20
2022-11-30T10:02:47.757Z,8.30
2022-11-30T10:05:17.820Z,8.30
2022-11-30T10:08:04.815Z,8.30
2022-11-30T10:10:39.247Z,8.30
2022-11-30T10:13:22.030Z,8.20
2022-11-30T10:16:06.719Z,8.20
2022-11-30T10:18:47.346Z,8.20
2022-11-30T10:21:30.803Z,8.20
2022-11-30T10:24:13.949Z,8.20
2022-11-30T10:26:46.528Z,8.20
2022-11-30T10:29:19.905Z,8.20
2022-11-30T10:31:51.654Z,8.30
2022-11-30T10:34:23.324Z,8.20
2022-11-30T10:36:55.899Z,8.20
2022-11-30T10:39:29.613Z,8.20
2022-11-30T10:42:04.293Z,8.20
2022-11-30T10:44:35.273Z,8.20
2022-11-30T10:47:08.153Z,8.20
2022-11-30T10:49:38.886Z,8.20
2022-11-30T10:52:09.568Z,8.20
2022-11-30T10:54:38.412Z,8.30
2022-11-30T10:57:07.469Z,8.30
2022-11-30T10:59:42.802Z,8.30
2022-11-30T11:02:39.104Z,8.20
2022-11-30T11:05:23.852Z,8.20
2022-11-30T11:08:05.751Z,8.20
2022-11-30T11:10:36.757Z,8.30
2022-11-30T11:13:06.138Z,8.30
2022-11-30T11:15:35.692Z,8.30
2022-11-30T11:18:23.636Z,8.40
2022-11-30T11:21:05.806Z,8.50
2022-11-30T11:23:38.886Z,8.60
2022-11-30T11:26:08.088Z,8.60
2022-11-30T11:28:37.547Z,8.60
2022-11-30T11:31:19.051Z,8.60
2022-11-30T11:33:55.146Z,8.60
2022-11-30T11:36:29.394Z,8.60
2022-11-30T11:38:58.220Z,8.60
2022-11-30T11:41:28.961Z,8.50
2022-11-30T11:44:02.265Z,8.50
2022-11-30T11:46:31.905Z,8.40
2022-11-30T11:49:03.418Z,8.40
2022-11-30T11:51:35.312Z,8.30
2022-11-30T11:54:14.800Z,8.30
2022-11-30T11:56:42.768Z,8.30
2022-11-30T11:59:16.588Z,8.20
2022-11-30T12:01:58.370Z,8.20
2022-11-30T12:04:45.813Z,8.10
2022-11-30T12:07:26.678Z,8.00
2022-11-30T12:10:16.568Z,8.00
2022-11-30T12:12:54.944Z,8.00
2022-11-30T12:15:29.460Z,8.00
2022-11-30T12:18:06.571Z,8.00
2022-11-30T12:20:47.972Z,8.00
2022-11-30T12:23:34.429Z,8.00
2022-11-30T12:26:13.228Z,8.00
2022-11-30T12:28:51.233Z,8.00
2022-11-30T12:31:19.823Z,8.00
2022-11-30T12:34:01.045Z,8.10
2022-11-30T12:36:40.683Z,8.10
2022-11-30T12:39:19.422Z,8.10
2022-11-30T12:41:52.207Z,8.10
2022-11-30T12:44:40.245Z,8.10
2022-11-30T12:47:22.511Z,8.10
2022-11-30T12:50:04.410Z,8.10
2022-11-30T12:52:48.708Z,8.20
2022-11-30T12:55:27.351Z,8.20
2022-11-30T12:58:05.555Z,8.20
2022-11-30T13:00:46.300Z,8.30
2022-11-30T13:03:50.747Z,8.30
2022-11-30T13:06:24.159Z,8.30
2022-11-30T13:08:57.116Z,8.30
2022-11-30T13:11:33.422Z,8.30
2022-11-30T13:14:02.064Z,8.40
2022-11-30T13:16:32.033Z,8.40
2022-11-30T13:19:09.145Z,8.60
2022-11-30T13:21:42.235Z,8.60
2022-11-30T13:24:15.946Z,8.60
2022-11-30T13:26:50.935Z,8.60
2022-11-30T13:29:47.713Z,8.60
2022-11-30T13:32:55.455Z,8.60
2022-11-30T13:35:43.538Z,8.50
2022-11-30T13:38:38.678Z,8.50
2022-11-30T13:41:09.505Z,8.50
2022-11-30T13:43:45.202Z,8.50
2022-11-30T13:46:16.660Z,8.50
2022-11-30T13:48:45.902Z,8.50
2022-11-30T13:51:27.663Z,8.40
2022-11-30T13:54:34.520Z,8.40
2022-11-30T13:57:02.469Z,8.40
2022-11-30T13:59:47.049Z,8.40
2022-11-30T14:02:58.216Z,8.40
2022-11-30T14:05:40.575Z,8.40
2022-11-30T14:08:17.614Z,8.40
2022-11-30T14:10:46.835Z,8.40
2022-11-30T14:13:31.817Z,8.40
2022-11-30T14:16:02.721Z,8.40
2022-11-30T14:18:42.970Z,8.30
2022-11-30T14:21:22.593Z,8.40
2022-11-30T14:23:57.030Z,8.30
2022-11-30T14:26:29.628Z,8.30
2022-11-30T14:29:03.586Z,8.30
2022-11-30T14:31:38.537Z,8.20
2022-11-30T14:34:11.877Z,8.20
2022-11-30T14:36:46.073Z,8.20
2022-11-30T14:39:28.699Z,8.10
2022-11-30T14:41:56.678Z,8.20
2022-11-30T14:44:24.661Z,8.10
2022-11-30T14:46:54.032Z,8.10
2022-11-30T14:49:23.913Z,8.10
2022-11-30T14:51:54.633Z,8.10
2022-11-30T14:54:43.453Z,8.10
2022-11-30T14:57:21.996Z,8.10
2022-11-30T14:59:52.171Z,8.20
2022-11-30T15:02:28.957Z,8.10
2022-11-30T15:04:59.214Z,8.10
2022-11-30T15:07:28.979Z,8.10
2022-11-30T15:10:04.707Z,8.10
2022-11-30T15:12:34.100Z,8.00
2022-11-30T15:15:08.803Z,8.00
2022-11-30T15:17:48.395Z,8.00
2022-11-30T15:20:24.283Z,8.00
2022-11-30T15:22:52.433Z,7.90
2022-11-30T15:25:22.550Z,7.90
2022-11-30T15:27:50.689Z,7.90
2022-11-30T15:30:18.913Z,7.90
2022-11-30T15:32:52.785Z,7.90
2022-11-30T15:35:23.886Z,7.80
2022-11-30T15:37:52.798Z,7.90
2022-11-30T15:40:32.685Z,7.80
2022-11-30T15:43:01.449Z,7.80
2022-11-30T15:45:32.446Z,7.80
2022-11-30T15:48:03.733Z,7.90
2022-11-30T15:50:40.272Z,7.90
2022-11-30T15:53:28.097Z,7.80
2022-11-30T15:55:58.250Z,7.80
2022-11-30T15:58:29.868Z,7.70
2022-11-30T16:01:11.021Z,7.80
2022-11-30T16:04:11.583Z,7.70
2022-11-30T16:06:47.289Z,7.70
2022-11-30T16:09:20.633Z,7.70
2022-11-30T16:11:51.228Z,7.60
2022-11-30T16:14:19.201Z,7.70
2022-11-30T16:16:47.962Z,7.60
2022-11-30T16:19:16.097Z,7.60
2022-11-30T16:21:45.586Z,7.80
2022-11-30T16:24:15.125Z,7.60
2022-11-30T16:26:50.880Z,7.60
2022-11-30T16:29:19.552Z,7.60
2022-11-30T16:31:47.558Z,7.60
2022-11-30T16:34:15.549Z,7.50
2022-11-30T16:36:45.028Z,7.50
2022-11-30T16:39:13.764Z,7.50
2022-11-30T16:41:43.199Z,7.50
2022-11-30T16:44:14.327Z,7.50
2022-11-30T16:46:42.426Z,7.50
2022-11-30T16:49:10.347Z,7.50
2022-11-30T16:51:38.430Z,7.40
2022-11-30T16:54:07.724Z,7.40
2022-11-30T16:56:35.693Z,7.40
2022-11-30T16:59:03.674Z,7.40
2022-11-30T17:01:36.260Z,7.30
2022-11-30T17:04:11.699Z,7.30
2022-11-30T17:06:40.144Z,7.20
2022-11-30T17:09:12.728Z,7.20
2022-11-30T17:11:41.865Z,7.20
2022-11-30T17:14:12.725Z,7.20
2022-11-30T17:16:40.901Z,7.20
2022-11-30T17:19:08.938Z,7.20
2022-11-30T17:21:39.322Z,7.30
2022-11-30T17:24:08.178Z,7.30
2022-11-30T17:26:37.477Z,7.20
2022-11-30T17:29:05.740Z,7.10
2022-11-30T17:31:34.312Z,7.10
2022-11-30T17:34:02.334Z,7.00
2022-11-30T17:36:30.299Z,7.00
2022-11-30T17:38:58.245Z,7.10
2022-11-30T17:41:26.344Z,6.90
2022-11-30T17:43:55.695Z,6.90
2022-11-30T17:46:23.713Z,6.80
2022-11-30T17:48:51.757Z,6.80
2022-11-30T17:51:19.879Z,6.80
2022-11-30T17:53:47.858Z,6.80
2022-11-30T17:56:17.719Z,6.80
2022-11-30T17:58:47.111Z,6.80
2022-11-30T18:01:18.957Z,6.80
2022-11-30T18:03:47.800Z,6.70
2022-11-30T18:06:20.078Z,6.70
2022-11-30T18:08:48.136Z,6.60
2022-11-30T18:11:20.065Z,6.60
2022-11-30T18:13:48.378Z,6.60
2022-11-30T18:16:19.836Z,6.60
2022-11-30T18:18:48.773Z,6.60
2022-11-30T18:21:19.535Z,6.50
2022-11-30T18:23:48.748Z,6.50
2022-11-30T18:26:19.504Z,6.50
2022-11-30T18:28:51.521Z,6.50
2022-11-30T18:31:21.123Z,6.50
2022-11-30T18:33:49.338Z,6.50
2022-11-30T18:36:17.610Z,6.40
2022-11-30T18:38:45.576Z,6.40
2022-11-30T18:41:13.622Z,6.40
2022-11-30T18:43:41.619Z,6.40
2022-11-30T18:46:11.427Z,6.50
2022-11-30T18:48:42.208Z,6.40
2022-11-30T18:51:12.514Z,6.40
2022-11-30T18:53:40.686Z,6.40
2022-11-30T18:56:10.729Z,6.40
2022-11-30T18:58:38.639Z,6.40
2022-11-30T19:01:11.018Z,6.40
2022-11-30T19:03:40.496Z,6.40
2022-11-30T19:06:10.561Z,6.40
2022-11-30T19:08:40.767Z,6.40
2022-11-30T19:11:10.596Z,6.40
2022-11-30T19:13:38.828Z,6.40
2022-11-30T19:16:08.166Z,6.40
2022-11-30T19:18:37.000Z,6.40
2022-11-30T19:21:10.432Z,6.40
2022-11-30T19:23:39.613Z,6.40
2022-11-30T19:26:09.785Z,6.30
2022-11-30T19:28:39.156Z,6.40
2022-11-30T19:31:09.541Z,6.40
2022-11-30T19:33:38.890Z,6.40
2022-11-30T19:36:12.538Z,6.40
2022-11-30T19:38:40.491Z,6.40
2022-11-30T19:41:09.652Z,6.40
2022-11-30T19:43:37.946Z,6.30
2022-11-30T19:46:06.950Z,6.40
2022-11-30T19:48:35.331Z,6.40
2022-11-30T19:51:06.790Z,6.50
2022-11-30T19:53:36.650Z,6.50
2022-11-30T19:56:08.669Z,6.50
2022-11-30T19:58:36.614Z,6.40
2022-11-30T20:01:05.096Z,6.40
2022-11-30T20:03:35.102Z,6.40
2022-11-30T20:06:03.394Z,6.30
2022-11-30T20:08:31.408Z,6.30
2022-11-30T20:11:00.657Z,6.30
2022-11-30T20:13:31.532Z,6.30
2022-11-30T20:15:59.533Z,6.30
2022-11-30T20:18:27.569Z,6.30
2022-11-30T20:20:55.536Z,6.30
2022-11-30T20:23:23.519Z,6.30
2022-11-30T20:25:51.485Z,6.30
2022-11-30T20:28:20.792Z,6.20
2022-11-30T20:30:48.812Z,6.30
2022-11-30T20:33:16.772Z,6.30
2022-11-30T20:35:44.733Z,6.30
2022-11-30T20:38:12.682Z,6.30
2022-11-30T20:40:40.596Z,6.30
2022-11-30T20:43:08.506Z,6.30
2022-11-30T20:45:37.886Z,6.30
2022-11-30T20:48:06.129Z,6.30
2022-11-30T20:50:34.214Z,6.30
2022-11-30T20:53:02.142Z,6.30
2022-11-30T20:55:30.070Z,6.30
2022-11-30T20:57:58.064Z,6.30
2022-11-30T21:00:25.986Z,6.30
2022-11-30T21:02:55.507Z,6.30
2022-11-30T21:05:23.668Z,6.30
2022-11-30T21:07:51.648Z,6.30
2022-11-30T21:10:19.816Z,6.30
2022-11-30T21:12:47.743Z,6.30
2022-11-30T21:15:15.901Z,6.30
2022-11-30T21:17:43.906Z,6.30
2022-11-30T21:20:13.795Z,6.30
2022-11-30T21:22:41.709Z,6.30
2022-11-30T21:25:10.288Z,6.30
2022-11-30T21:27:38.280Z,6.30
2022-11-30T21:30:07.558Z,6.30
2022-11-30T21:32:35.595Z,6.30
2022-11-30T21:35:03.544Z,6.30
2022-11-30T21:37:32.824Z,6.30
2022-11-30T21:40:00.770Z,6.30
2022-11-30T21:42:28.723Z,6.30
2022-11-30T21:44:56.936Z,6.30
2022-11-30T21:47:24.877Z,6.30
2022-11-30T21:49:52.854Z,6.30
2022-11-30T21:52:20.781Z,6.30
2022-11-30T21:54:53.363Z,6.30
2022-11-30T21:57:21.564Z,6.30
2022-11-30T21:59:50.032Z,6.30
2022-11-30T22:02:18.251Z,6.30
2022-11-30T22:04:46.369Z,6.30
2022-11-30T22:07:14.430Z,6.30
2022-11-30T22:09:42.515Z,6.30
2022-11-30T22:12:11.842Z,6.30
2022-11-30T22:14:39.784Z,6.30
2022-11-30T22:17:07.867Z,6.30
2022-11-30T22:19:35.790Z,6.30
2022-11-30T22:22:03.741Z,6.30
2022-11-30T22:24:31.697Z,6.30
2022-11-30T22:26:59.642Z,6.30
2022-11-30T22:29:29.358Z,6.30
2022-11-30T22:31:57.373Z,6.30
2022-11-30T22:34:26.239Z,6.30
2022-11-30T22:36:54.233Z,6.20
2022-11-30T22:39:22.745Z,6.20
2022-11-30T22:41:55.663Z,6.30
2022-11-30T22:44:25.481Z,6.20
2022-11-30T22:46:54.893Z,6.20
2022-11-30T22:49:23.055Z,6.20
2022-11-30T22:51:51.853Z,6.20
2022-11-30T22:54:19.896Z,6.20
2022-11-30T22:56:47.891Z,6.20
2022-11-30T22:59:16.601Z,6.10
2022-11-30T23:01:46.778Z,6.20
2022-11-30T23:04:17.456Z,6.10
2022-11-30T23:06:46.125Z,6.10
2022-11-30T23:09:16.095Z,6.10
2022-11-30T23:11:44.073Z,6.10
2022-11-30T23:14:12.258Z,6.10
2022-11-30T23:16:40.954Z,6.10
2022-11-30T23:19:09.420Z,6.10
2022-11-30T23:21:42.078Z,6.10
2022-11-30T23:24:14.581Z,6.10
2022-11-30T23:26:43.028Z,6.10
2022-11-30T23:29:13.794Z,6.10
2022-11-30T23:31:43.410Z,6.10
2022-11-30T23:34:13.159Z,6.10
2022-11-30T23:36:42.506Z,6.00
2022-11-30T23:39:12.409Z,6.10
2022-11-30T23:41:40.936Z,6.10
2022-11-30T23:44:09.395Z,6.00
2022-11-30T23:46:38.149Z,6.00
2022-11-30T23:49:06.571Z,6.00
2022-11-30T23:51:34.522Z,6.00
2022-11-30T23:54:04.010Z,6.00
2022-11-30T23:56:31.980Z,6.00
2022-11-30T23:58:59.899Z,6.00
